createdAt,value
2019-06-07T00:00:30.382Z,12.85
2019-06-07T00:02:40.099Z,12.33
2019-06-07T00:05:10.064Z,13.08
2019-06-07T00:07:38.872Z,13.40
2019-06-07T00:10:09.238Z,13.68
2019-06-07T00:12:37.558Z,13.90
2019-06-07T00:15:14.324Z,12.58
2019-06-07T00:17:37.048Z,12.55
2019-06-07T00:20:09.351Z,13.43
2019-06-07T00:22:38.226Z,14.45
2019-06-07T00:25:12.127Z,13.68
2019-06-07T00:27:37.681Z,13.83
2019-06-07T00:30:32.774Z,15.10
2019-06-07T00:32:39.035Z,13.95
2019-06-07T00:35:09.026Z,14.38
2019-06-07T00:37:37.814Z,14.40
2019-06-07T00:40:16.282Z,14.13
2019-06-07T00:42:37.866Z,14.98
2019-06-07T00:45:06.992Z,15.98
2019-06-07T00:47:35.568Z,15.32
2019-06-07T00:50:05.099Z,15.80
2019-06-07T00:55:05.967Z,16.25
2019-06-07T00:57:34.384Z,15.85
2019-06-07T01:00:02.867Z,16.10
2019-06-07T01:02:31.811Z,15.65
2019-06-07T01:05:00.337Z,16.65
2019-06-07T01:07:28.737Z,17.07
2019-06-07T01:09:57.123Z,17.15
2019-06-07T01:12:27.099Z,17.35
2019-06-07T01:14:55.687Z,17.73
2019-06-07T01:17:39.079Z,17.35
2019-06-07T01:19:56.766Z,17.87
2019-06-07T01:22:29.016Z,18.65
2019-06-07T01:24:55.310Z,16.20
2019-06-07T01:27:25.479Z,18.80
2019-06-07T01:29:53.982Z,17.55
2019-06-07T01:32:24.684Z,17.82
2019-06-07T01:34:53.896Z,16.95
2019-06-07T01:37:27.749Z,18.05
2019-06-07T01:39:53.718Z,19.00
2019-06-07T01:42:24.575Z,18.65
2019-06-07T01:44:52.557Z,19.32
2019-06-07T01:47:24.759Z,19.80
2019-06-07T01:49:51.085Z,18.92
2019-06-07T01:52:22.846Z,19.10
2019-06-07T01:54:58.065Z,17.82
2019-06-07T01:57:36.544Z,19.05
2019-06-07T01:59:50.197Z,18.27
2019-06-07T02:02:20.055Z,19.07
2019-06-07T02:04:49.096Z,18.48
2019-06-07T02:07:20.365Z,20.10
2019-06-07T02:09:47.695Z,20.20
2019-06-07T02:12:25.529Z,19.80
2019-06-07T02:14:47.596Z,20.25
2019-06-07T02:17:15.992Z,19.27
2019-06-07T02:19:44.401Z,20.23
2019-06-07T02:22:14.195Z,20.90
2019-06-07T02:24:43.784Z,19.60
2019-06-07T02:27:12.268Z,19.97
2019-06-07T02:29:40.670Z,19.27
2019-06-07T02:32:09.062Z,19.10
2019-06-07T02:34:39.543Z,18.25
2019-06-07T02:37:07.665Z,20.25
2019-06-07T02:39:40.047Z,19.30
2019-06-07T02:42:06.942Z,17.32
2019-06-07T02:44:38.968Z,18.82
2019-06-07T02:47:05.467Z,19.05
2019-06-07T02:49:40.482Z,20.48
2019-06-07T02:52:03.976Z,19.35
2019-06-07T02:54:36.992Z,20.92
2019-06-07T02:57:02.522Z,19.37
2019-06-07T02:59:56.087Z,18.62
2019-06-07T03:02:01.901Z,16.73
2019-06-07T03:04:34.898Z,18.98
2019-06-07T03:07:02.210Z,16.55
2019-06-07T03:09:34.323Z,15.40
2019-06-07T03:12:03.576Z,16.77
2019-06-07T03:14:35.283Z,18.90
2019-06-07T03:17:12.921Z,16.50
2019-06-07T03:19:44.607Z,18.07
2019-06-07T03:22:13.435Z,18.07
2019-06-07T03:24:45.513Z,18.50
2019-06-07T03:27:36.035Z,19.45
2019-06-07T03:29:45.868Z,18.70
2019-06-07T03:32:14.337Z,19.30
2019-06-07T03:34:43.653Z,18.07
2019-06-07T03:37:12.515Z,18.20
2019-06-07T03:39:41.262Z,14.55
2019-06-07T03:42:09.815Z,15.85
2019-06-07T03:44:41.392Z,16.73
2019-06-07T03:47:08.368Z,16.25
2019-06-07T03:49:41.703Z,17.85
2019-06-07T03:52:07.227Z,18.25
2019-06-07T03:54:38.433Z,18.50
2019-06-07T03:57:05.750Z,17.85
2019-06-07T03:59:38.686Z,19.65
2019-06-07T04:02:04.430Z,17.25
2019-06-07T04:04:34.978Z,18.55
2019-06-07T04:07:02.942Z,19.60
2019-06-07T04:09:35.138Z,17.02
2019-06-07T04:12:01.729Z,19.80
2019-06-07T04:14:30.937Z,19.20
2019-06-07T04:17:00.249Z,19.77
2019-06-07T04:19:28.911Z,17.52
2019-06-07T04:21:57.929Z,18.45
2019-06-07T04:24:26.328Z,17.75
2019-06-07T04:26:54.747Z,18.42
2019-06-07T04:29:32.850Z,18.32
2019-06-07T04:31:53.266Z,13.88
2019-06-07T04:34:21.665Z,17.52
2019-06-07T04:36:59.100Z,14.25
2019-06-07T04:39:24.152Z,10.48
2019-06-07T04:41:55.066Z,17.20
2019-06-07T04:44:25.074Z,15.48
2019-06-07T04:46:56.696Z,17.15
2019-06-07T04:49:26.360Z,16.35
2019-06-07T04:51:56.802Z,14.80
2019-06-07T04:54:25.864Z,14.65
2019-06-07T04:56:54.267Z,14.45
2019-06-07T05:00:00.779Z,13.45
2019-06-07T05:04:21.363Z,11.35
2019-06-07T05:06:49.786Z,13.32
2019-06-07T05:09:18.172Z,14.05
2019-06-07T05:11:46.915Z,13.72
2019-06-07T05:14:15.321Z,14.53
2019-06-07T05:16:44.544Z,14.83
2019-06-07T05:19:13.153Z,15.30
2019-06-07T05:21:59.929Z,13.10
2019-06-07T05:24:11.746Z,13.78
2019-06-07T05:26:42.598Z,13.50
2019-06-07T05:29:10.596Z,13.60
2019-06-07T05:31:42.372Z,13.40
2019-06-07T05:34:09.408Z,13.43
2019-06-07T05:36:39.899Z,13.83
2019-06-07T05:39:08.345Z,12.53
2019-06-07T05:41:39.323Z,13.43
2019-06-07T05:44:12.564Z,12.33
2019-06-07T05:46:38.617Z,11.38
2019-06-07T05:49:07.670Z,11.90
2019-06-07T05:51:38.098Z,11.45
2019-06-07T05:54:06.590Z,11.70
2019-06-07T05:56:35.870Z,10.55
2019-06-07T05:59:05.125Z,11.25
2019-06-07T06:01:59.773Z,10.82
2019-06-07T06:04:03.716Z,11.30
2019-06-07T06:06:32.133Z,11.38
2019-06-07T06:09:13.364Z,11.10
2019-06-07T06:11:45.800Z,11.78
2019-06-07T06:14:07.289Z,10.60
2019-06-07T06:16:31.639Z,10.40
2019-06-07T06:19:00.031Z,10.63
2019-06-07T06:21:28.423Z,10.15
2019-06-07T06:23:57.186Z,10.82
2019-06-07T06:26:25.747Z,10.55
2019-06-07T06:28:54.151Z,10.58
2019-06-07T06:31:23.208Z,9.30
2019-06-07T06:33:51.629Z,10.55
2019-06-07T06:36:20.631Z,9.78
2019-06-07T06:38:51.368Z,9.05
2019-06-07T06:41:21.016Z,10.25
2019-06-07T06:43:52.375Z,8.35
2019-06-07T06:46:37.529Z,7.55
2019-06-07T06:48:54.981Z,7.85
2019-06-07T06:51:20.129Z,7.53
2019-06-07T06:53:49.869Z,7.22
2019-06-07T06:56:18.708Z,8.25
2019-06-07T06:59:27.351Z,6.90
2019-06-07T07:01:17.216Z,6.90
2019-06-07T07:06:35.183Z,6.08
2019-06-07T07:09:05.098Z,6.95
2019-06-07T07:11:33.527Z,6.10
2019-06-07T07:14:01.898Z,6.12
2019-06-07T07:16:30.557Z,5.95
2019-06-07T07:18:58.931Z,5.15
2019-06-07T07:21:27.331Z,5.55
2019-06-07T07:24:19.521Z,5.42
2019-06-07T07:26:25.849Z,5.55
2019-06-07T07:28:57.319Z,5.22
2019-06-07T07:31:24.349Z,5.53
2019-06-07T07:36:38.951Z,5.05
2019-06-07T07:41:23.704Z,4.60
2019-06-07T07:44:04.322Z,5.50
2019-06-07T07:46:30.209Z,4.80
2019-06-07T07:48:54.626Z,4.70
2019-06-07T07:51:22.736Z,4.50
2019-06-07T07:54:01.338Z,4.25
2019-06-07T07:56:21.256Z,3.83
2019-06-07T07:58:51.134Z,3.42
2019-06-07T08:01:19.810Z,3.08
2019-06-07T08:03:48.214Z,3.95
2019-06-07T08:06:16.694Z,4.15
2019-06-07T08:08:46.278Z,3.60
2019-06-07T08:11:14.784Z,3.70
2019-06-07T08:13:43.182Z,3.87
2019-06-07T08:16:15.504Z,3.67
2019-06-07T08:18:41.718Z,4.37
2019-06-07T08:21:24.360Z,4.17
2019-06-07T08:23:40.241Z,3.70
2019-06-07T08:26:08.672Z,3.85
2019-06-07T08:28:37.155Z,3.00
2019-06-07T08:31:07.366Z,3.05
2019-06-07T08:33:35.658Z,3.45
2019-06-07T08:36:16.957Z,3.20
2019-06-07T08:38:47.614Z,2.40
2019-06-07T08:41:11.996Z,3.30
2019-06-07T08:46:07.457Z,3.10
2019-06-07T08:48:32.507Z,3.60
2019-06-07T08:51:07.467Z,3.25
2019-06-07T08:53:31.036Z,3.50
2019-06-07T08:56:08.922Z,2.58
2019-06-07T08:58:29.593Z,4.25
2019-06-07T09:01:03.595Z,3.87
2019-06-07T09:03:28.095Z,4.90
2019-06-07T09:06:00.522Z,3.80
2019-06-07T09:08:30.537Z,3.60
2019-06-07T09:10:58.923Z,3.80
2019-06-07T09:13:26.823Z,4.47
2019-06-07T09:15:55.970Z,3.92
2019-06-07T09:20:57.448Z,4.12
2019-06-07T09:23:25.571Z,4.65
2019-06-07T09:26:01.309Z,5.00
2019-06-07T09:28:24.746Z,4.25
2019-06-07T09:30:53.268Z,4.42
2019-06-07T09:33:21.647Z,3.80
2019-06-07T09:35:50.151Z,4.33
2019-06-07T09:38:25.621Z,4.17
2019-06-07T09:40:48.728Z,3.85
2019-06-07T09:44:00.910Z,4.00
2019-06-07T09:45:47.284Z,3.92
2019-06-07T09:48:34.381Z,4.78
2019-06-07T09:53:22.786Z,5.45
2019-06-07T09:55:43.861Z,4.67
2019-06-07T10:00:43.049Z,3.58
2019-06-07T10:03:20.506Z,4.70
2019-06-07T10:05:41.889Z,4.45
2019-06-07T10:08:54.750Z,3.83
2019-06-07T10:10:42.893Z,4.17
2019-06-07T10:13:10.578Z,4.28
2019-06-07T10:15:39.049Z,5.15
2019-06-07T10:18:07.484Z,4.20
2019-06-07T10:20:36.158Z,3.72
2019-06-07T10:23:05.728Z,3.50
2019-06-07T10:25:34.295Z,4.05
2019-06-07T10:28:03.817Z,3.95
2019-06-07T10:30:32.427Z,3.40
2019-06-07T10:33:02.110Z,3.42
2019-06-07T10:35:30.764Z,3.52
2019-06-07T10:38:00.327Z,3.27
2019-06-07T10:40:28.847Z,3.45
2019-06-07T10:42:57.225Z,4.37
2019-06-07T10:45:25.627Z,3.67
2019-06-07T10:47:54.587Z,3.15
2019-06-07T10:50:23.064Z,3.83
2019-06-07T10:52:51.448Z,2.92
2019-06-07T10:55:19.848Z,2.55
2019-06-07T10:57:48.236Z,3.58
2019-06-07T11:00:18.536Z,3.12
2019-06-07T11:05:15.373Z,3.33
2019-06-07T11:07:43.810Z,3.37
2019-06-07T11:10:18.794Z,3.05
2019-06-07T11:12:42.412Z,2.90
2019-06-07T11:15:12.818Z,3.33
2019-06-07T11:17:41.413Z,3.30
2019-06-07T11:20:10.563Z,3.45
2019-06-07T11:22:38.942Z,2.83
2019-06-07T11:25:09.068Z,3.15
2019-06-07T11:30:08.363Z,2.85
2019-06-07T11:32:36.987Z,3.15
2019-06-07T11:35:08.503Z,3.60
2019-06-07T11:37:36.992Z,2.98
2019-06-07T11:40:07.869Z,2.95
2019-06-07T11:42:36.546Z,2.50
2019-06-07T11:45:08.070Z,2.50
2019-06-07T11:47:37.516Z,2.62
2019-06-07T11:50:07.714Z,3.53
2019-06-07T11:55:09.382Z,3.37
2019-06-07T11:57:38.192Z,2.83
2019-06-07T12:00:11.472Z,2.83
2019-06-07T12:02:40.243Z,2.50
2019-06-07T12:05:10.368Z,3.00
2019-06-07T12:07:39.280Z,2.10
2019-06-07T12:10:10.583Z,3.05
2019-06-07T12:12:39.209Z,2.37
2019-06-07T12:15:08.885Z,2.00
2019-06-07T12:17:37.460Z,3.10
2019-06-07T12:20:09.274Z,2.50
2019-06-07T12:22:38.020Z,2.50
2019-06-07T12:25:07.635Z,2.65
2019-06-07T12:27:36.022Z,2.50
2019-06-07T12:30:11.253Z,3.33
2019-06-07T12:32:38.001Z,2.75
2019-06-07T12:35:08.008Z,2.22
2019-06-07T12:37:43.896Z,2.47
2019-06-07T12:42:34.922Z,2.25
2019-06-07T12:45:05.318Z,2.30
2019-06-07T12:47:33.709Z,1.95
2019-06-07T12:50:02.213Z,2.02
2019-06-07T12:52:30.706Z,2.08
2019-06-07T12:54:59.159Z,2.42
2019-06-07T12:57:27.548Z,2.52
2019-06-07T12:59:55.921Z,2.08
2019-06-07T13:02:25.587Z,2.00
2019-06-07T13:04:54.332Z,2.20
2019-06-07T13:07:24.174Z,2.20
2019-06-07T13:09:52.672Z,2.17
2019-06-07T13:12:21.776Z,2.05
2019-06-07T13:14:50.245Z,1.93
2019-06-07T13:17:20.231Z,2.60
2019-06-07T13:22:16.376Z,2.15
2019-06-07T13:24:44.735Z,2.80
2019-06-07T13:27:13.138Z,2.12
2019-06-07T13:29:41.525Z,1.87
2019-06-07T13:32:09.958Z,2.05
2019-06-07T13:34:38.399Z,1.92
2019-06-07T13:37:06.823Z,2.08
2019-06-07T13:39:35.208Z,1.80
2019-06-07T13:42:03.610Z,2.12
2019-06-07T13:44:31.997Z,2.02
2019-06-07T13:47:00.447Z,1.85
2019-06-07T13:49:28.837Z,1.98
2019-06-07T13:51:57.236Z,2.05
2019-06-07T13:54:25.630Z,1.87
2019-06-07T13:57:02.433Z,2.05
2019-06-07T13:59:24.598Z,1.95
2019-06-07T14:01:53.056Z,2.00
2019-06-07T14:04:23.170Z,1.60
2019-06-07T14:06:51.670Z,1.90
2019-06-07T14:09:21.133Z,4.17
2019-06-07T14:11:51.019Z,1.90
2019-06-07T14:14:20.121Z,2.00
2019-06-07T14:16:48.681Z,1.80
2019-06-07T14:19:17.093Z,2.30
2019-06-07T14:21:45.476Z,2.87
2019-06-07T14:24:14.177Z,2.10
2019-06-07T14:26:44.204Z,2.55
2019-06-07T14:31:40.323Z,1.87
2019-06-07T14:34:08.790Z,2.62
2019-06-07T14:36:37.241Z,2.00
2019-06-07T14:39:07.073Z,2.35
2019-06-07T14:41:35.469Z,2.67
2019-06-07T14:44:03.921Z,2.08
2019-06-07T14:46:32.309Z,2.00
2019-06-07T14:49:00.696Z,1.82
2019-06-07T14:51:31.334Z,2.05
2019-06-07T14:53:59.216Z,1.98
2019-06-07T14:56:29.563Z,1.87
2019-06-07T14:58:58.115Z,2.17
2019-06-07T15:01:26.563Z,2.67
2019-06-07T15:03:55.065Z,2.22
2019-06-07T15:06:23.519Z,2.15
2019-06-07T15:08:51.933Z,1.87
2019-06-07T15:11:20.315Z,1.90
2019-06-07T15:13:49.052Z,2.27
2019-06-07T15:16:17.524Z,1.60
2019-06-07T15:18:46.075Z,2.27
2019-06-07T15:21:14.465Z,2.20
2019-06-07T15:23:42.883Z,2.35
2019-06-07T15:26:11.258Z,1.95
2019-06-07T15:28:39.637Z,2.25
2019-06-07T15:31:08.060Z,1.95
2019-06-07T15:33:36.605Z,1.85
2019-06-07T15:36:05.504Z,2.00
2019-06-07T15:38:34.803Z,1.72
2019-06-07T15:41:03.697Z,1.75
2019-06-07T15:43:33.121Z,1.92
2019-06-07T15:46:01.888Z,2.05
2019-06-07T15:48:31.955Z,2.20
2019-06-07T15:51:00.517Z,2.17
2019-06-07T15:53:32.718Z,1.80
2019-06-07T15:55:59.102Z,1.90
2019-06-07T15:58:27.492Z,2.00
2019-06-07T16:00:55.893Z,2.27
2019-06-07T16:03:24.275Z,2.27
2019-06-07T16:05:52.704Z,2.37
2019-06-07T16:08:21.235Z,2.42
2019-06-07T16:10:49.692Z,2.60
2019-06-07T16:13:18.076Z,3.35
2019-06-07T16:15:46.478Z,2.70
2019-06-07T16:18:14.851Z,2.80
2019-06-07T16:20:43.809Z,2.62
2019-06-07T16:23:12.413Z,2.35
2019-06-07T16:25:42.070Z,3.00
2019-06-07T16:28:10.596Z,2.60
2019-06-07T16:30:39.091Z,2.70
2019-06-07T16:33:07.531Z,2.60
2019-06-07T16:35:36.948Z,2.08
2019-06-07T16:38:05.383Z,7.03
2019-06-07T16:40:33.785Z,5.42
2019-06-07T16:43:16.249Z,3.12
2019-06-07T16:45:32.276Z,3.30
2019-06-07T16:48:00.672Z,2.90
2019-06-07T16:50:29.056Z,3.22
2019-06-07T16:52:57.457Z,2.20
2019-06-07T16:55:25.840Z,2.15
2019-06-07T16:57:54.233Z,1.50
2019-06-07T17:00:23.061Z,1.50
2019-06-07T17:02:51.477Z,2.52
2019-06-07T17:05:20.133Z,1.40
2019-06-07T17:07:49.902Z,1.40
2019-06-07T17:10:18.620Z,1.30
2019-06-07T17:12:48.799Z,0.82
2019-06-07T17:17:46.955Z,1.50
2019-06-07T17:20:16.525Z,0.93
2019-06-07T17:22:45.765Z,0.88
2019-06-07T17:25:16.197Z,0.90
2019-06-07T17:27:46.163Z,1.02
2019-06-07T17:30:14.922Z,0.85
2019-06-07T17:32:50.629Z,0.93
2019-06-07T17:35:14.089Z,0.80
2019-06-07T17:37:47.669Z,0.60
2019-06-07T17:40:17.901Z,0.68
2019-06-07T17:42:46.805Z,0.55
2019-06-07T17:45:16.156Z,0.70
2019-06-07T17:47:45.972Z,1.00
2019-06-07T17:50:14.959Z,0.62
2019-06-07T17:52:43.803Z,0.62
2019-06-07T17:55:12.752Z,0.88
2019-06-07T17:57:42.266Z,0.55
2019-06-07T18:00:28.010Z,0.70
2019-06-07T18:02:44.932Z,0.70
2019-06-07T18:05:13.694Z,0.80
2019-06-07T18:07:43.743Z,0.53
2019-06-07T18:10:12.274Z,0.50
2019-06-07T18:12:42.037Z,0.37
2019-06-07T18:15:12.065Z,0.35
2019-06-07T18:17:40.465Z,0.75
2019-06-07T18:20:10.078Z,0.60
2019-06-07T18:22:38.553Z,0.43
2019-06-07T18:25:07.676Z,0.40
2019-06-07T18:27:36.068Z,0.40
2019-06-07T18:30:11.731Z,0.30
2019-06-07T18:32:37.036Z,0.62
2019-06-07T18:35:06.360Z,0.60
2019-06-07T18:37:35.502Z,0.60
2019-06-07T18:40:07.222Z,0.78
2019-06-07T18:42:35.693Z,0.95
2019-06-07T18:45:06.419Z,0.42
2019-06-07T18:47:34.816Z,0.60
2019-06-07T18:50:03.681Z,0.30
2019-06-07T18:52:33.743Z,0.50
2019-06-07T18:55:02.148Z,0.50
2019-06-07T18:57:30.635Z,0.40
2019-06-07T19:00:03.338Z,0.40
2019-06-07T19:02:32.024Z,0.60
2019-06-07T19:05:00.415Z,0.40
2019-06-07T19:07:30.069Z,0.60
2019-06-07T19:09:59.413Z,0.43
2019-06-07T19:12:28.308Z,0.70
2019-06-07T19:14:57.621Z,0.80
2019-06-07T19:17:26.163Z,0.70
2019-06-07T19:19:54.583Z,0.65
2019-06-07T19:22:22.974Z,0.70
2019-06-07T19:24:53.862Z,0.70
2019-06-07T19:27:22.566Z,0.60
2019-06-07T19:29:50.977Z,0.60
2019-06-07T19:32:19.362Z,0.75
2019-06-07T19:34:47.753Z,0.50
2019-06-07T19:37:16.142Z,0.60
2019-06-07T19:39:44.541Z,0.47
2019-06-07T19:42:12.924Z,0.65
2019-06-07T19:44:53.156Z,0.53
2019-06-07T19:47:11.443Z,0.70
2019-06-07T19:49:39.841Z,0.60
2019-06-07T19:52:08.230Z,0.60
2019-06-07T19:54:36.636Z,0.60
2019-06-07T19:57:05.292Z,0.65
2019-06-07T19:59:33.703Z,0.42
2019-06-07T20:02:02.212Z,0.37
2019-06-07T20:04:30.764Z,0.68
2019-06-07T20:07:00.266Z,0.65
2019-06-07T20:09:31.182Z,0.70
2019-06-07T20:11:58.975Z,0.47
2019-06-07T20:14:27.360Z,0.40
2019-06-07T20:16:57.059Z,0.60
2019-06-07T20:19:25.650Z,0.30
2019-06-07T20:21:54.056Z,0.50
2019-06-07T20:24:27.259Z,0.47
2019-06-07T20:26:52.825Z,0.50
2019-06-07T20:29:25.765Z,0.50
2019-06-07T20:34:19.369Z,0.62
2019-06-07T20:36:47.877Z,0.68
2019-06-07T20:39:16.259Z,0.50
2019-06-07T20:41:44.676Z,0.40
2019-06-07T20:44:13.067Z,0.40
2019-06-07T20:46:41.528Z,0.50
2019-06-07T20:49:09.924Z,0.72
2019-06-07T20:51:38.331Z,0.72
2019-06-07T20:54:09.019Z,0.60
2019-06-07T20:56:37.602Z,0.50
2019-06-07T20:59:09.033Z,0.50
2019-06-07T21:01:38.380Z,0.30
2019-06-07T21:04:07.292Z,0.50
2019-06-07T21:06:35.830Z,0.37
2019-06-07T21:09:07.393Z,0.53
2019-06-07T21:11:36.033Z,0.53
2019-06-07T21:14:06.059Z,0.55
2019-06-07T21:16:34.642Z,0.60
2019-06-07T21:19:04.134Z,0.50
2019-06-07T21:21:32.604Z,0.70
2019-06-07T21:24:00.996Z,0.50
2019-06-07T21:26:29.399Z,0.50
2019-06-07T21:28:57.790Z,0.57
2019-06-07T21:31:26.183Z,0.30
2019-06-07T21:33:54.571Z,0.60
2019-06-07T21:36:22.961Z,0.80
2019-06-07T21:38:51.637Z,0.85
2019-06-07T21:41:20.004Z,1.10
2019-06-07T21:43:48.405Z,0.55
2019-06-07T21:46:20.572Z,0.70
2019-06-07T21:48:48.184Z,0.60
2019-06-07T21:51:16.564Z,0.73
2019-06-07T21:53:44.952Z,0.40
2019-06-07T21:56:13.528Z,0.90
2019-06-07T21:58:42.353Z,0.50
2019-06-07T22:01:14.378Z,0.50
2019-06-07T22:03:43.011Z,0.42
2019-06-07T22:06:11.842Z,0.42
2019-06-07T22:08:40.263Z,0.40
2019-06-07T22:11:10.103Z,0.60
2019-06-07T22:13:39.075Z,0.50
2019-06-07T22:16:23.413Z,0.70
2019-06-07T22:18:39.220Z,0.70
2019-06-07T22:21:08.569Z,0.72
2019-06-07T22:23:37.075Z,0.60
2019-06-07T22:26:05.456Z,0.50
2019-06-07T22:28:34.175Z,1.00
2019-06-07T22:31:02.561Z,0.68
2019-06-07T22:33:30.944Z,0.70
2019-06-07T22:35:59.334Z,0.70
2019-06-07T22:38:27.729Z,0.50
2019-06-07T22:40:56.117Z,0.60
2019-06-07T22:43:24.514Z,0.70
2019-06-07T22:45:52.932Z,0.57
2019-06-07T22:48:21.366Z,0.68
2019-06-07T22:50:49.760Z,0.60
2019-06-07T22:53:18.151Z,0.65
2019-06-07T22:55:48.169Z,0.70
2019-06-07T22:58:16.669Z,0.70
2019-06-07T23:00:45.119Z,0.50
2019-06-07T23:03:15.010Z,0.60
2019-06-07T23:05:43.575Z,0.50
2019-06-07T23:08:13.082Z,0.50
2019-06-07T23:10:41.642Z,0.50
2019-06-07T23:13:11.233Z,0.78
2019-06-07T23:15:39.683Z,0.75
2019-06-07T23:18:09.315Z,0.50
2019-06-07T23:20:38.145Z,1.05
2019-06-07T23:23:06.553Z,0.60
2019-06-07T23:25:34.940Z,0.60
2019-06-07T23:28:03.356Z,0.90
2019-06-07T23:30:31.752Z,0.45
2019-06-07T23:33:00.170Z,0.68
2019-06-07T23:35:28.560Z,0.60
2019-06-07T23:37:56.973Z,0.57
2019-06-07T23:40:25.369Z,0.70
2019-06-07T23:42:53.787Z,0.40
2019-06-07T23:45:22.181Z,0.65
2019-06-07T23:47:50.837Z,0.57
2019-06-07T23:50:19.879Z,0.80
2019-06-07T23:52:48.860Z,0.50
2019-06-07T23:55:17.908Z,0.60
2019-06-07T23:57:46.388Z,0.82
